createdAt,value
2023-03-25T00:00:45.008Z,100067.41
2023-03-25T00:03:17.966Z,100066.53
2023-03-25T00:05:50.352Z,100069.97
2023-03-25T00:08:25.229Z,100067.34
2023-03-25T00:11:00.444Z,100072.56
2023-03-25T00:13:32.693Z,100074.25
2023-03-25T00:16:07.320Z,100065.50
2023-03-25T00:18:40.136Z,100068.06
2023-03-25T00:21:12.236Z,100068.91
2023-03-25T00:23:44.451Z,100061.03
2023-03-25T00:26:16.658Z,100065.53
2023-03-25T00:28:48.712Z,100066.47
2023-03-25T00:31:20.845Z,100062.22
2023-03-25T00:33:52.926Z,100061.25
2023-03-25T00:36:25.000Z,100061.09
2023-03-25T00:38:57.085Z,100061.09
2023-03-25T00:41:29.163Z,100055.81
2023-03-25T00:44:01.796Z,100058.25
2023-03-25T00:46:34.650Z,100057.41
2023-03-25T00:49:07.474Z,100074.00
2023-03-25T00:51:52.917Z,100055.72
2023-03-25T00:54:26.042Z,100063.56
2023-03-25T00:56:58.132Z,100046.22
2023-03-25T00:59:30.288Z,100057.59
2023-03-25T01:02:03.113Z,100049.72
2023-03-25T01:04:41.532Z,100050.53
2023-03-25T01:07:16.671Z,100054.66
2023-03-25T01:09:49.003Z,100048.69
2023-03-25T01:12:21.188Z,100048.72
2023-03-25T01:14:54.274Z,100052.25
2023-03-25T01:17:26.494Z,100052.97
2023-03-25T01:19:58.531Z,100045.97
2023-03-25T01:22:30.599Z,100046.22
2023-03-25T01:25:02.664Z,100041.03
2023-03-25T01:27:34.759Z,100039.22
2023-03-25T01:30:08.227Z,100041.75
2023-03-25T01:32:40.329Z,100032.38
2023-03-25T01:35:12.584Z,100032.31
2023-03-25T01:37:44.826Z,100033.13
2023-03-25T01:40:23.735Z,100027.88
2023-03-25T01:42:56.078Z,100027.84
2023-03-25T01:45:34.832Z,100020.81
2023-03-25T01:48:13.282Z,100023.16
2023-03-25T01:50:53.764Z,100022.41
2023-03-25T01:53:30.410Z,100018.25
2023-03-25T01:56:05.752Z,100021.63
2023-03-25T01:58:38.435Z,100014.78
2023-03-25T02:01:13.831Z,100006.13
2023-03-25T02:03:46.464Z,100026.16
2023-03-25T02:06:32.061Z,100016.66
2023-03-25T02:09:09.412Z,100000.91
2023-03-25T02:11:41.493Z,100011.44
2023-03-25T02:14:19.653Z,100007.94
2023-03-25T02:17:22.323Z,100004.28
2023-03-25T02:20:09.455Z,100010.53
2023-03-25T02:23:09.872Z,100000.13
2023-03-25T02:26:09.657Z,100005.44
2023-03-25T02:29:15.688Z,100003.81
2023-03-25T02:32:18.602Z,99997.59
2023-03-25T02:35:26.777Z,100010.59
2023-03-25T02:38:43.449Z,100001.84
2023-03-25T02:41:43.471Z,100009.78
2023-03-25T02:44:24.182Z,100000.25
2023-03-25T02:47:02.418Z,99992.31
2023-03-25T02:49:53.506Z,99991.59
2023-03-25T02:52:31.577Z,99995.00
2023-03-25T02:55:10.571Z,99987.19
2023-03-25T02:57:46.904Z,99988.06
2023-03-25T03:00:26.955Z,99996.75
2023-03-25T03:03:02.686Z,99986.34
2023-03-25T03:05:39.595Z,99989.75
2023-03-25T03:08:42.312Z,99997.59
2023-03-25T03:12:02.377Z,99984.13
2023-03-25T03:14:53.017Z,99986.09
2023-03-25T03:18:10.280Z,99986.22
2023-03-25T03:20:57.132Z,99980.81
2023-03-25T03:23:41.505Z,99977.50
2023-03-25T03:26:43.533Z,99978.41
2023-03-25T03:29:34.141Z,99975.59
2023-03-25T03:32:49.994Z,99969.38
2023-03-25T03:35:34.151Z,99964.22
2023-03-25T03:38:14.787Z,99965.88
2023-03-25T03:40:53.813Z,99971.88
2023-03-25T03:43:32.056Z,99978.84
2023-03-25T03:46:13.549Z,99972.91
2023-03-25T03:48:52.235Z,99982.28
2023-03-25T03:51:32.597Z,99969.19
2023-03-25T03:54:18.523Z,99974.47
2023-03-25T03:57:02.813Z,99999.63
2023-03-25T04:00:06.943Z,99981.47
2023-03-25T04:02:52.362Z,99984.88
2023-03-25T04:05:31.015Z,99983.28
2023-03-25T04:08:24.230Z,99985.22
2023-03-25T04:11:12.494Z,99979.91
2023-03-25T04:13:46.877Z,99999.81
2023-03-25T04:16:19.011Z,99989.50
2023-03-25T04:18:53.785Z,99988.84
2023-03-25T04:21:26.061Z,99996.63
2023-03-25T04:24:01.643Z,100006.19
2023-03-25T04:26:37.862Z,99997.56
2023-03-25T04:29:10.252Z,100003.72
2023-03-25T04:31:46.574Z,99998.63
2023-03-25T04:34:20.769Z,99998.69
2023-03-25T04:36:54.894Z,100000.38
2023-03-25T04:39:29.954Z,99997.00
2023-03-25T04:42:03.371Z,100001.47
2023-03-25T04:44:39.392Z,99998.84
2023-03-25T04:47:16.437Z,99995.28
2023-03-25T04:49:48.482Z,99999.47
2023-03-25T04:52:20.546Z,99994.19
2023-03-25T04:54:52.602Z,99999.47
2023-03-25T04:57:26.711Z,99984.75
2023-03-25T04:59:58.830Z,99987.34
2023-03-25T05:02:31.261Z,99993.41
2023-03-25T05:05:04.962Z,99988.97
2023-03-25T05:07:37.010Z,99986.22
2023-03-25T05:10:11.363Z,100000.03
2023-03-25T05:12:43.471Z,99990.72
2023-03-25T05:15:19.966Z,99995.84
2023-03-25T05:17:52.377Z,99996.69
2023-03-25T05:20:24.983Z,99994.00
2023-03-25T05:22:57.737Z,99999.22
2023-03-25T05:25:34.514Z,99998.34
2023-03-25T05:28:09.968Z,99997.47
2023-03-25T05:30:46.192Z,100000.03
2023-03-25T05:33:19.132Z,99998.22
2023-03-25T05:35:51.524Z,99991.19
2023-03-25T05:38:23.686Z,100001.56
2023-03-25T05:40:56.728Z,99999.91
2023-03-25T05:43:28.984Z,99997.38
2023-03-25T05:46:01.049Z,100002.69
2023-03-25T05:48:33.293Z,100005.31
2023-03-25T05:51:13.699Z,100007.00
2023-03-25T05:53:50.239Z,100012.16
2023-03-25T05:56:24.434Z,100012.91
2023-03-25T05:58:57.762Z,100004.19
2023-03-25T06:01:33.832Z,100012.88
2023-03-25T06:04:10.506Z,100001.66
2023-03-25T06:06:42.815Z,100005.13
2023-03-25T06:09:14.925Z,100007.75
2023-03-25T06:11:53.512Z,100006.81
2023-03-25T06:14:25.818Z,100003.34
2023-03-25T06:16:57.929Z,100018.81
2023-03-25T06:19:30.006Z,100011.81
2023-03-25T06:22:02.084Z,100012.00
2023-03-25T06:24:34.122Z,100012.19
2023-03-25T06:27:12.437Z,100020.84
2023-03-25T06:29:45.780Z,100013.78
2023-03-25T06:32:17.885Z,100015.75
2023-03-25T06:34:49.916Z,100016.69
2023-03-25T06:37:22.176Z,100016.50
2023-03-25T06:39:56.819Z,100026.63
2023-03-25T06:42:29.611Z,100021.41
2023-03-25T06:45:05.115Z,100019.66
2023-03-25T06:47:37.333Z,100015.22
2023-03-25T06:50:09.997Z,100016.53
2023-03-25T06:52:42.090Z,100018.75
2023-03-25T06:55:14.229Z,100008.50
2023-03-25T06:57:46.282Z,100015.56
2023-03-25T07:00:20.570Z,100019.91
2023-03-25T07:02:52.714Z,100024.69
2023-03-25T07:05:26.243Z,100009.31
2023-03-25T07:07:59.309Z,100014.91
2023-03-25T07:10:32.461Z,100022.09
2023-03-25T07:13:04.631Z,100026.91
2023-03-25T07:15:36.663Z,100014.78
2023-03-25T07:18:08.719Z,100017.25
2023-03-25T07:20:46.158Z,100018.81
2023-03-25T07:23:18.719Z,100021.47
2023-03-25T07:25:51.163Z,100026.19
2023-03-25T07:28:23.657Z,100022.16
2023-03-25T07:30:55.929Z,100022.34
2023-03-25T07:33:28.106Z,100023.34
2023-03-25T07:36:00.209Z,100021.31
2023-03-25T07:38:32.693Z,100023.06
2023-03-25T07:41:13.289Z,100024.00
2023-03-25T07:43:46.299Z,100029.78
2023-03-25T07:46:18.459Z,100042.94
2023-03-25T07:48:50.659Z,100031.66
2023-03-25T07:51:22.816Z,100028.94
2023-03-25T07:53:55.084Z,100034.06
2023-03-25T07:56:37.418Z,100037.59
2023-03-25T07:59:09.814Z,100041.88
2023-03-25T08:01:41.891Z,100064.84
2023-03-25T08:04:14.068Z,100046.78
2023-03-25T08:06:46.229Z,100047.94
2023-03-25T08:09:18.261Z,100073.69
2023-03-25T08:11:51.539Z,100058.34
2023-03-25T08:14:23.751Z,100077.00
2023-03-25T08:16:55.836Z,100055.53
2023-03-25T08:19:28.028Z,100064.22
2023-03-25T08:22:00.878Z,100061.75
2023-03-25T08:24:33.093Z,100068.75
2023-03-25T08:27:13.741Z,100064.41
2023-03-25T08:29:54.564Z,100068.81
2023-03-25T08:32:28.384Z,100063.56
2023-03-25T08:35:00.470Z,100068.75
2023-03-25T08:37:35.475Z,100062.75
2023-03-25T08:40:11.022Z,100064.44
2023-03-25T08:42:43.635Z,100066.91
2023-03-25T08:45:15.808Z,100065.97
2023-03-25T08:47:47.919Z,100062.41
2023-03-25T08:50:20.028Z,100071.72
2023-03-25T08:52:53.690Z,100063.94
2023-03-25T08:55:26.207Z,100071.66
2023-03-25T08:58:03.305Z,100065.53
2023-03-25T09:00:37.959Z,100053.91
2023-03-25T09:03:10.256Z,100052.41
2023-03-25T09:05:42.396Z,100048.41
2023-03-25T09:08:14.986Z,100053.16
2023-03-25T09:10:47.131Z,100055.88
2023-03-25T09:13:19.180Z,100059.81
2023-03-25T09:15:51.518Z,100046.50
2023-03-25T09:18:23.752Z,100048.66
2023-03-25T09:21:00.203Z,100056.22
2023-03-25T09:23:32.366Z,100049.31
2023-03-25T09:26:05.419Z,100053.44
2023-03-25T09:28:37.477Z,100052.59
2023-03-25T09:31:09.636Z,100051.53
2023-03-25T09:33:41.732Z,100055.16
2023-03-25T09:36:13.804Z,100050.50
2023-03-25T09:38:46.008Z,100055.78
2023-03-25T09:42:09.024Z,100045.53
2023-03-25T09:45:14.580Z,100044.59
2023-03-25T09:48:03.539Z,100044.72
2023-03-25T09:50:38.007Z,100041.09
2023-03-25T09:53:39.574Z,100042.63
2023-03-25T09:56:21.799Z,100033.00
2023-03-25T09:59:01.986Z,100035.25
2023-03-25T10:01:55.502Z,100026.34
2023-03-25T10:04:30.494Z,100028.19
2023-03-25T10:07:23.650Z,100023.50
2023-03-25T10:10:32.700Z,100017.53
2023-03-25T10:13:27.811Z,100025.63
2023-03-25T10:16:27.310Z,100032.34
2023-03-25T10:19:15.550Z,100040.25
2023-03-25T10:22:16.200Z,100037.97
2023-03-25T10:25:05.417Z,100039.06
2023-03-25T10:27:46.008Z,100042.44
2023-03-25T10:30:39.035Z,100044.91
2023-03-25T10:33:39.210Z,100048.25
2023-03-25T10:36:19.353Z,100044.75
2023-03-25T10:38:55.313Z,100051.75
2023-03-25T10:41:37.963Z,100043.09
2023-03-25T10:44:11.525Z,100043.69
2023-03-25T10:46:55.206Z,100044.97
2023-03-25T10:49:30.877Z,100033.28
2023-03-25T10:52:04.291Z,100039.19
2023-03-25T10:54:48.507Z,100036.16
2023-03-25T10:57:29.688Z,100035.09
2023-03-25T11:00:31.896Z,100040.38
2023-03-25T11:03:05.448Z,100041.31
2023-03-25T11:05:37.542Z,100036.00
2023-03-25T11:08:22.214Z,100044.03
2023-03-25T11:10:57.980Z,100038.78
2023-03-25T11:13:32.264Z,100031.97
2023-03-25T11:16:04.987Z,100029.97
2023-03-25T11:18:40.961Z,100033.34
2023-03-25T11:21:14.562Z,100026.78
2023-03-25T11:23:52.190Z,100030.88
2023-03-25T11:26:39.856Z,100039.97
2023-03-25T11:29:21.958Z,100035.25
2023-03-25T11:32:06.050Z,100028.25
2023-03-25T11:34:42.540Z,100042.06
2023-03-25T11:37:22.534Z,100026.47
2023-03-25T11:39:56.191Z,100022.66
2023-03-25T11:42:42.892Z,100015.13
2023-03-25T11:45:35.880Z,100028.06
2023-03-25T11:48:23.441Z,100031.66
2023-03-25T11:51:02.524Z,100022.69
2023-03-25T11:53:35.011Z,100020.41
2023-03-25T11:56:11.533Z,100032.09
2023-03-25T11:58:44.159Z,100031.78
2023-03-25T12:01:48.337Z,100028.38
2023-03-25T12:04:25.307Z,100025.16
2023-03-25T12:07:15.756Z,100035.47
2023-03-25T12:09:59.938Z,100036.34
2023-03-25T12:12:59.136Z,100042.66
2023-03-25T12:15:58.945Z,100042.66
2023-03-25T12:18:54.898Z,100045.28
2023-03-25T12:21:38.982Z,100033.06
2023-03-25T12:24:58.025Z,100038.63
2023-03-25T12:28:05.541Z,100043.38
2023-03-25T12:30:55.561Z,100038.91
2023-03-25T12:33:43.237Z,100044.28
2023-03-25T12:36:18.224Z,100044.44
2023-03-25T12:39:42.278Z,100042.84
2023-03-25T12:42:26.330Z,100046.72
2023-03-25T12:45:07.533Z,100044.66
2023-03-25T12:47:44.138Z,100044.94
2023-03-25T12:50:42.140Z,100041.50
2023-03-25T12:53:22.103Z,100038.00
2023-03-25T12:56:14.341Z,100033.78
2023-03-25T12:59:08.378Z,100034.22
2023-03-25T13:02:12.281Z,100020.28
2023-03-25T13:05:14.981Z,100029.53
2023-03-25T13:07:54.705Z,100034.47
2023-03-25T13:10:34.079Z,100037.72
2023-03-25T13:13:16.656Z,100031.03
2023-03-25T13:16:19.923Z,100039.59
2023-03-25T13:19:08.453Z,100024.28
2023-03-25T13:21:46.677Z,100040.00
2023-03-25T13:24:34.923Z,100026.56
2023-03-25T13:27:13.454Z,100015.56
2023-03-25T13:29:57.886Z,100016.16
2023-03-25T13:32:51.106Z,100008.41
2023-03-25T13:35:44.675Z,100007.31
2023-03-25T13:38:27.201Z,100010.59
2023-03-25T13:41:17.044Z,100005.81
2023-03-25T13:44:07.989Z,100005.31
2023-03-25T13:47:13.181Z,100012.13
2023-03-25T13:49:56.596Z,100010.53
2023-03-25T13:52:39.331Z,100015.72
2023-03-25T13:55:18.816Z,100006.19
2023-03-25T13:58:26.548Z,100003.66
2023-03-25T14:01:29.259Z,99994.94
2023-03-25T14:04:18.088Z,99993.31
2023-03-25T14:07:27.783Z,100006.00
2023-03-25T14:11:06.316Z,100007.03
2023-03-25T14:13:45.019Z,100003.09
2023-03-25T14:16:23.068Z,99999.81
2023-03-25T14:19:11.802Z,100000.53
2023-03-25T14:21:49.203Z,100000.63
2023-03-25T14:24:28.983Z,99990.16
2023-03-25T14:27:22.927Z,99995.00
2023-03-25T14:30:06.403Z,100004.22
2023-03-25T14:32:41.763Z,100000.59
2023-03-25T14:35:35.767Z,99995.66
2023-03-25T14:38:08.087Z,99989.78
2023-03-25T14:40:58.990Z,100009.16
2023-03-25T14:43:48.098Z,100026.72
2023-03-25T14:46:26.411Z,100000.53
2023-03-25T14:49:06.038Z,100005.06
2023-03-25T14:51:42.876Z,99998.13
2023-03-25T14:54:36.792Z,99993.69
2023-03-25T14:57:19.570Z,99994.44
2023-03-25T15:00:14.017Z,99989.09
2023-03-25T15:02:53.902Z,100005.66
2023-03-25T15:05:29.297Z,100016.53
2023-03-25T15:08:26.112Z,99994.91
2023-03-25T15:11:17.209Z,99979.44
2023-03-25T15:13:56.686Z,99975.25
2023-03-25T15:16:39.651Z,99979.47
2023-03-25T15:19:14.013Z,99971.47
2023-03-25T15:22:11.254Z,99957.28
2023-03-25T15:24:51.341Z,99955.00
2023-03-25T15:28:06.471Z,99941.78
2023-03-25T15:31:25.356Z,99943.22
2023-03-25T15:34:12.783Z,99950.59
2023-03-25T15:37:05.866Z,99958.78
2023-03-25T15:40:01.096Z,99929.41
2023-03-25T15:42:59.657Z,99942.50
2023-03-25T15:46:01.308Z,99935.59
2023-03-25T15:49:13.875Z,99921.69
2023-03-25T15:52:07.292Z,99938.22
2023-03-25T15:55:07.544Z,99929.81
2023-03-25T15:57:55.008Z,99933.50
2023-03-25T16:00:42.540Z,99935.44
2023-03-25T16:03:20.880Z,99924.06
2023-03-25T16:06:00.669Z,99912.94
2023-03-25T16:08:38.272Z,99933.59
2023-03-25T16:11:26.822Z,99983.19
2023-03-25T16:14:17.596Z,100029.88
2023-03-25T16:16:56.811Z,100023.69
2023-03-25T16:19:54.117Z,99983.28
2023-03-25T16:22:30.146Z,99974.72
2023-03-25T16:25:12.662Z,99978.28
2023-03-25T16:27:48.145Z,99990.59
2023-03-25T16:30:26.488Z,100018.44
2023-03-25T16:33:09.747Z,99995.00
2023-03-25T16:35:55.315Z,99988.13
2023-03-25T16:38:28.244Z,99985.38
2023-03-25T16:41:09.729Z,99989.56
2023-03-25T16:43:42.795Z,99987.00
2023-03-25T16:46:16.495Z,100001.69
2023-03-25T16:48:54.168Z,100002.50
2023-03-25T16:51:32.251Z,99997.22
2023-03-25T16:54:22.739Z,100005.94
2023-03-25T16:56:55.476Z,99995.53
2023-03-25T16:59:35.446Z,99999.97
2023-03-25T17:02:23.491Z,99993.75
2023-03-25T17:05:13.167Z,99994.63
2023-03-25T17:07:56.801Z,99993.69
2023-03-25T17:10:32.844Z,99997.19
2023-03-25T17:13:11.599Z,100005.78
2023-03-25T17:15:48.715Z,100000.56
2023-03-25T17:18:28.120Z,100007.53
2023-03-25T17:21:01.853Z,100009.31
2023-03-25T17:23:46.492Z,100002.28
2023-03-25T17:26:21.214Z,100000.69
2023-03-25T17:29:00.118Z,100011.78
2023-03-25T17:31:41.389Z,100011.78
2023-03-25T17:34:15.765Z,100022.25
2023-03-25T17:36:50.580Z,100030.84
2023-03-25T17:39:30.242Z,100028.34
2023-03-25T17:42:06.541Z,100033.63
2023-03-25T17:44:43.107Z,100037.06
2023-03-25T17:47:17.724Z,100032.75
2023-03-25T17:49:52.284Z,100044.00
2023-03-25T17:52:24.461Z,100052.66
2023-03-25T17:54:56.589Z,100062.22
2023-03-25T17:57:28.622Z,100065.03
2023-03-25T18:00:00.787Z,100062.47
2023-03-25T18:02:32.924Z,100066.00
2023-03-25T18:05:08.329Z,100056.56
2023-03-25T18:07:40.565Z,100067.91
2023-03-25T18:10:19.771Z,100074.06
2023-03-25T18:12:51.850Z,100079.38
2023-03-25T18:15:24.165Z,100094.03
2023-03-25T18:17:56.749Z,100105.38
2023-03-25T18:20:33.674Z,100099.28
2023-03-25T18:23:06.600Z,100100.13
2023-03-25T18:25:39.929Z,100110.50
2023-03-25T18:28:13.612Z,100100.94
2023-03-25T18:31:01.403Z,100109.53
2023-03-25T18:33:35.256Z,100113.91
2023-03-25T18:36:07.838Z,100117.31
2023-03-25T18:38:39.989Z,100112.03
2023-03-25T18:41:17.602Z,100119.81
2023-03-25T18:43:49.855Z,100124.97
2023-03-25T18:46:22.114Z,100127.56
2023-03-25T18:48:56.337Z,100124.16
2023-03-25T18:51:29.607Z,100136.34
2023-03-25T18:54:01.743Z,100135.38
2023-03-25T18:56:33.967Z,100145.72
2023-03-25T18:59:06.142Z,100151.84
2023-03-25T19:01:38.297Z,100156.22
2023-03-25T19:04:10.537Z,100158.88
2023-03-25T19:06:43.239Z,100152.75
2023-03-25T19:09:22.922Z,100163.19
2023-03-25T19:11:55.011Z,100164.94
2023-03-25T19:14:27.113Z,100168.44
2023-03-25T19:17:04.008Z,100174.53
2023-03-25T19:19:36.839Z,100175.56
2023-03-25T19:22:09.997Z,100183.38
2023-03-25T19:24:45.032Z,100187.72
2023-03-25T19:27:17.140Z,100193.84
2023-03-25T19:29:50.343Z,100179.03
2023-03-25T19:32:43.009Z,100192.03
2023-03-25T19:35:17.801Z,100192.00
2023-03-25T19:37:53.332Z,100205.88
2023-03-25T19:40:28.310Z,100202.44
2023-03-25T19:43:02.569Z,100202.44
2023-03-25T19:45:35.154Z,100212.81
2023-03-25T19:48:07.360Z,100211.94
2023-03-25T19:50:41.306Z,100204.94
2023-03-25T19:53:14.526Z,100217.91
2023-03-25T19:55:46.676Z,100213.72
2023-03-25T19:58:20.490Z,100219.78
2023-03-25T20:00:53.215Z,100219.00
2023-03-25T20:03:26.578Z,100225.91
2023-03-25T20:06:03.364Z,100232.06
2023-03-25T20:08:35.509Z,100232.97
2023-03-25T20:11:12.271Z,100219.97
2023-03-25T20:13:44.727Z,100224.31
2023-03-25T20:16:17.016Z,100229.47
2023-03-25T20:18:49.543Z,100231.19
2023-03-25T20:21:23.189Z,100238.09
2023-03-25T20:23:55.355Z,100235.53
2023-03-25T20:26:27.630Z,100231.25
2023-03-25T20:28:59.837Z,100231.25
2023-03-25T20:31:33.523Z,100238.22
2023-03-25T20:34:06.680Z,100235.66
2023-03-25T20:36:38.897Z,100237.41
2023-03-25T20:39:11.552Z,100245.19
2023-03-25T20:41:43.739Z,100242.63
2023-03-25T20:44:15.951Z,100246.94
2023-03-25T20:46:49.954Z,100254.78
2023-03-25T20:49:22.403Z,100253.13
2023-03-25T20:51:56.228Z,100254.81
2023-03-25T20:54:28.742Z,100254.78
2023-03-25T20:57:00.896Z,100248.69
2023-03-25T20:59:35.862Z,100261.72
2023-03-25T21:02:10.341Z,100259.13
2023-03-25T21:04:43.218Z,100272.25
2023-03-25T21:07:19.481Z,100265.34
2023-03-25T21:09:51.594Z,100264.44
2023-03-25T21:12:32.837Z,100260.91
2023-03-25T21:15:17.176Z,100270.44
2023-03-25T21:17:49.316Z,100269.56
2023-03-25T21:20:27.221Z,100269.50
2023-03-25T21:22:59.457Z,100277.38
2023-03-25T21:25:35.283Z,100278.19
2023-03-25T21:28:08.238Z,100272.16
2023-03-25T21:30:40.773Z,100281.66
2023-03-25T21:33:15.790Z,100282.56
2023-03-25T21:35:53.957Z,100286.84
2023-03-25T21:38:29.133Z,100293.81
2023-03-25T21:41:04.629Z,100292.97
2023-03-25T21:43:42.636Z,100298.13
2023-03-25T21:46:15.658Z,100295.50
2023-03-25T21:48:48.759Z,100294.69
2023-03-25T21:51:21.606Z,100299.03
2023-03-25T21:53:53.806Z,100303.38
2023-03-25T21:56:28.061Z,100301.66
2023-03-25T21:59:03.592Z,100305.13
2023-03-25T22:01:36.022Z,100310.38
2023-03-25T22:04:08.942Z,100310.38
2023-03-25T22:06:41.311Z,100306.88
2023-03-25T22:09:13.507Z,100306.94
2023-03-25T22:11:45.631Z,100310.38
2023-03-25T22:14:17.848Z,100315.56
2023-03-25T22:16:49.992Z,100317.34
2023-03-25T22:19:24.081Z,100309.53
2023-03-25T22:21:56.775Z,100315.59
2023-03-25T22:24:30.530Z,100321.69
2023-03-25T22:27:03.195Z,100319.09
2023-03-25T22:29:35.466Z,100314.72
2023-03-25T22:32:07.557Z,100324.25
2023-03-25T22:34:40.365Z,100321.66
2023-03-25T22:37:12.516Z,100326.06
2023-03-25T22:39:44.762Z,100329.50
2023-03-25T22:42:16.839Z,100336.44
2023-03-25T22:44:49.247Z,100347.75
2023-03-25T22:47:21.342Z,100352.16
2023-03-25T22:49:53.505Z,100364.31
2023-03-25T22:52:25.612Z,100357.34
2023-03-25T22:54:57.704Z,100364.25
2023-03-25T22:57:29.886Z,100365.97
2023-03-25T23:00:02.785Z,100379.88
2023-03-25T23:02:34.916Z,100378.13
2023-03-25T23:05:08.257Z,100387.69
2023-03-25T23:07:40.529Z,100385.09
2023-03-25T23:10:13.955Z,100390.28
2023-03-25T23:12:46.134Z,100387.72
2023-03-25T23:15:18.361Z,100393.78
2023-03-25T23:17:50.480Z,100398.13
2023-03-25T23:20:22.606Z,100405.94
2023-03-25T23:22:54.867Z,100403.38
2023-03-25T23:25:26.917Z,100417.25
2023-03-25T23:27:58.948Z,100414.66
2023-03-25T23:30:31.131Z,100413.78
2023-03-25T23:33:03.223Z,100422.47
2023-03-25T23:35:35.644Z,100418.13
2023-03-25T23:38:08.239Z,100429.41
2023-03-25T23:40:40.643Z,100428.56
2023-03-25T23:43:12.770Z,100434.63
2023-03-25T23:45:44.914Z,100437.22
2023-03-25T23:48:16.980Z,100436.41
2023-03-25T23:50:49.513Z,100445.09
2023-03-25T23:53:22.821Z,100432.94
2023-03-25T23:55:56.123Z,100439.00
2023-03-25T23:58:28.505Z,100435.53
